createdAt,value
2023-04-01T00:01:04.838Z,64.80
2023-04-01T00:03:34.326Z,64.80
2023-04-01T00:06:02.489Z,64.80
2023-04-01T00:08:30.515Z,64.80
2023-04-01T00:10:58.491Z,64.90
2023-04-01T00:13:28.738Z,64.80
2023-04-01T00:15:57.280Z,65.00
2023-04-01T00:18:25.712Z,64.80
2023-04-01T00:20:54.476Z,64.80
2023-04-01T00:23:21.881Z,64.90
2023-04-01T00:25:50.435Z,64.80
2023-04-01T00:28:19.917Z,64.90
2023-04-01T00:30:48.225Z,64.90
2023-04-01T00:33:16.573Z,64.80
2023-04-01T00:35:43.623Z,64.90
2023-04-01T00:38:12.288Z,65.80
2023-04-01T00:40:45.895Z,64.90
2023-04-01T00:43:21.648Z,65.00
2023-04-01T00:45:50.714Z,65.00
2023-04-01T00:48:26.418Z,65.00
2023-04-01T00:51:02.513Z,65.00
2023-04-01T00:53:31.269Z,65.00
2023-04-01T00:56:05.935Z,65.00
2023-04-01T00:58:39.949Z,65.00
2023-04-01T01:01:09.201Z,65.00
2023-04-01T01:03:37.114Z,65.00
2023-04-01T01:06:47.803Z,65.00
2023-04-01T01:10:04.851Z,65.00
2023-04-01T01:12:46.803Z,64.90
2023-04-01T01:15:42.709Z,65.00
2023-04-01T01:18:52.418Z,65.00
2023-04-01T01:21:47.274Z,65.00
2023-04-01T01:24:32.526Z,65.00
2023-04-01T01:27:05.543Z,65.00
2023-04-01T01:30:14.429Z,65.10
2023-04-01T01:33:11.341Z,65.00
2023-04-01T01:35:48.482Z,65.00
2023-04-01T01:38:26.022Z,65.10
2023-04-01T01:41:01.822Z,65.10
2023-04-01T01:43:41.013Z,65.10
2023-04-01T01:46:21.549Z,65.10
2023-04-01T01:48:49.585Z,65.10
2023-04-01T01:51:17.849Z,65.10
2023-04-01T01:53:45.139Z,65.20
2023-04-01T01:56:16.685Z,65.10
2023-04-01T01:58:53.078Z,65.10
2023-04-01T02:01:27.701Z,65.20
2023-04-01T02:03:59.690Z,65.10
2023-04-01T02:06:33.818Z,65.10
2023-04-01T02:09:05.567Z,65.10
2023-04-01T02:11:52.796Z,65.10
2023-04-01T02:14:28.157Z,65.10
2023-04-01T02:17:15.410Z,65.10
2023-04-01T02:20:08.801Z,65.10
2023-04-01T02:22:42.905Z,65.20
2023-04-01T02:25:16.058Z,65.10
2023-04-01T02:27:45.977Z,65.10
2023-04-01T02:30:16.210Z,65.20
2023-04-01T02:32:44.370Z,65.20
2023-04-01T02:35:16.567Z,65.20
2023-04-01T02:37:45.449Z,65.20
2023-04-01T02:40:15.440Z,65.20
2023-04-01T02:42:43.198Z,65.20
2023-04-01T02:45:12.286Z,65.20
2023-04-01T02:47:39.856Z,65.20
2023-04-01T02:50:09.068Z,65.20
2023-04-01T02:52:36.409Z,65.20
2023-04-01T02:55:04.826Z,65.20
2023-04-01T02:57:33.642Z,65.10
2023-04-01T03:00:00.980Z,65.20
2023-04-01T03:02:28.274Z,65.10
2023-04-01T03:04:55.388Z,65.20
2023-04-01T03:07:22.696Z,65.20
2023-04-01T03:09:50.325Z,65.20
2023-04-01T03:12:17.748Z,65.20
2023-04-01T03:14:50.729Z,65.20
2023-04-01T03:17:18.166Z,65.20
2023-04-01T03:19:46.068Z,65.30
2023-04-01T03:22:13.380Z,65.20
2023-04-01T03:24:40.688Z,65.10
2023-04-01T03:27:07.700Z,65.20
2023-04-01T03:29:34.748Z,65.30
2023-04-01T03:32:02.202Z,65.10
2023-04-01T03:34:29.612Z,65.20
2023-04-01T03:36:57.090Z,65.10
2023-04-01T03:39:24.323Z,65.20
2023-04-01T03:41:51.505Z,66.10
2023-04-01T03:44:18.963Z,65.20
2023-04-01T03:46:49.835Z,65.20
2023-04-01T03:49:18.953Z,65.20
2023-04-01T03:51:46.050Z,65.10
2023-04-01T03:54:13.362Z,65.20
2023-04-01T03:56:40.573Z,65.20
2023-04-01T03:59:09.520Z,65.20
2023-04-01T04:01:37.082Z,65.20
2023-04-01T04:04:04.705Z,65.20
2023-04-01T04:06:31.887Z,65.20
2023-04-01T04:08:58.860Z,65.20
2023-04-01T04:11:27.495Z,65.20
2023-04-01T04:13:56.035Z,65.20
2023-04-01T04:16:24.052Z,65.20
2023-04-01T04:18:57.545Z,65.20
2023-04-01T04:21:24.811Z,65.20
2023-04-01T04:23:52.588Z,65.20
2023-04-01T04:26:21.016Z,65.20
2023-04-01T04:28:56.370Z,65.20
2023-04-01T04:31:26.155Z,65.20
2023-04-01T04:33:56.711Z,65.20
2023-04-01T04:36:24.186Z,65.20
2023-04-01T04:38:52.540Z,65.20
2023-04-01T04:41:23.140Z,65.20
2023-04-01T04:43:58.298Z,65.30
2023-04-01T04:46:26.545Z,65.30
2023-04-01T04:49:04.597Z,65.20
2023-04-01T04:51:34.917Z,65.20
2023-04-01T04:54:06.403Z,65.20
2023-04-01T04:56:47.349Z,65.30
2023-04-01T04:59:14.604Z,65.20
2023-04-01T05:01:48.720Z,65.30
2023-04-01T05:04:16.652Z,65.20
2023-04-01T05:06:45.771Z,65.30
2023-04-01T05:09:13.054Z,65.30
2023-04-01T05:11:41.204Z,65.20
2023-04-01T05:14:17.098Z,65.20
2023-04-01T05:16:51.947Z,65.20
2023-04-01T05:19:19.242Z,65.30
2023-04-01T05:21:46.552Z,65.30
2023-04-01T05:24:14.138Z,65.20
2023-04-01T05:26:42.036Z,65.30
2023-04-01T05:29:09.156Z,65.20
2023-04-01T05:31:36.457Z,65.30
2023-04-01T05:34:05.004Z,65.30
2023-04-01T05:36:32.771Z,65.20
2023-04-01T05:38:59.832Z,65.30
2023-04-01T05:41:30.891Z,65.30
2023-04-01T05:43:58.078Z,65.30
2023-04-01T05:46:45.085Z,65.30
2023-04-01T05:49:23.357Z,65.30
2023-04-01T05:51:52.211Z,65.30
2023-04-01T05:54:21.172Z,65.30
2023-04-01T05:56:48.908Z,65.30
2023-04-01T05:59:16.854Z,65.30
2023-04-01T06:01:44.076Z,65.30
2023-04-01T06:04:18.378Z,65.30
2023-04-01T06:06:46.720Z,65.30
2023-04-01T06:09:31.281Z,65.30
2023-04-01T06:12:30.499Z,65.30
2023-04-01T06:15:25.836Z,65.30
2023-04-01T06:18:38.250Z,65.30
2023-04-01T06:21:42.401Z,65.30
2023-04-01T06:24:58.946Z,65.30
2023-04-01T06:27:54.208Z,65.30
2023-04-01T06:30:39.640Z,65.30
2023-04-01T06:33:31.403Z,65.30
2023-04-01T06:36:01.568Z,65.30
2023-04-01T06:38:43.416Z,65.30
2023-04-01T06:41:44.340Z,65.40
2023-04-01T06:44:51.267Z,65.40
2023-04-01T06:48:02.240Z,65.30
2023-04-01T06:51:25.541Z,65.40
2023-04-01T06:54:23.176Z,65.50
2023-04-01T06:57:41.264Z,65.30
2023-04-01T07:00:35.138Z,65.40
2023-04-01T07:03:24.542Z,65.40
2023-04-01T07:05:53.110Z,65.40
2023-04-01T07:08:29.674Z,65.50
2023-04-01T07:11:06.464Z,65.50
2023-04-01T07:14:21.248Z,65.60
2023-04-01T07:17:10.444Z,65.50
2023-04-01T07:19:55.223Z,65.50
2023-04-01T07:22:40.553Z,65.60
2023-04-01T07:25:27.157Z,64.90
2023-04-01T07:28:18.034Z,63.90
2023-04-01T07:31:27.192Z,63.60
2023-04-01T07:34:14.425Z,63.20
2023-04-01T07:37:07.880Z,62.60
2023-04-01T07:39:59.958Z,62.30
2023-04-01T07:43:15.705Z,62.10
2023-04-01T07:46:08.673Z,62.00
2023-04-01T07:49:08.281Z,62.20
2023-04-01T07:52:10.050Z,61.80
2023-04-01T07:54:59.338Z,61.60
2023-04-01T07:58:10.855Z,61.60
2023-04-01T08:00:57.391Z,61.20
2023-04-01T08:04:12.909Z,61.60
2023-04-01T08:07:00.220Z,61.30
2023-04-01T08:09:33.777Z,61.40
2023-04-01T08:13:30.506Z,61.70
2023-04-01T08:16:28.599Z,61.10
2023-04-01T08:19:32.926Z,60.90
2023-04-01T08:22:10.001Z,61.10
2023-04-01T08:24:48.031Z,61.00
2023-04-01T08:27:42.796Z,61.50
2023-04-01T08:30:25.909Z,61.90
2023-04-01T08:33:14.965Z,62.10
2023-04-01T08:36:07.969Z,61.80
2023-04-01T08:38:57.982Z,61.90
2023-04-01T08:41:44.469Z,62.20
2023-04-01T08:45:14.377Z,62.40
2023-04-01T08:48:20.641Z,62.40
2023-04-01T08:51:26.697Z,62.40
2023-04-01T08:54:31.209Z,62.50
2023-04-01T08:57:20.519Z,62.50
2023-04-01T09:01:11.730Z,62.40
2023-04-01T09:04:27.324Z,62.60
2023-04-01T09:07:53.617Z,62.50
2023-04-01T09:11:12.184Z,62.40
2023-04-01T09:14:08.726Z,62.30
2023-04-01T09:17:29.211Z,62.20
2023-04-01T09:20:34.484Z,62.30
2023-04-01T09:23:38.759Z,62.20
2023-04-01T09:26:27.830Z,62.20
2023-04-01T09:29:18.841Z,62.10
2023-04-01T09:32:17.752Z,62.20
2023-04-01T09:35:22.628Z,62.20
2023-04-01T09:38:18.499Z,62.10
2023-04-01T09:40:57.562Z,63.20
2023-04-01T09:44:19.340Z,62.30
2023-04-01T09:47:59.770Z,62.50
2023-04-01T09:50:56.484Z,62.40
2023-04-01T09:54:00.490Z,62.30
2023-04-01T09:57:20.774Z,62.40
2023-04-01T10:00:34.773Z,62.30
2023-04-01T10:03:42.964Z,62.30
2023-04-01T10:06:47.329Z,62.30
2023-04-01T10:09:46.277Z,62.30
2023-04-01T10:12:41.593Z,62.10
2023-04-01T10:15:25.434Z,62.00
2023-04-01T10:18:31.988Z,61.90
2023-04-01T10:21:18.871Z,62.00
2023-04-01T10:24:33.233Z,61.80
2023-04-01T10:27:34.613Z,61.70
2023-04-01T10:30:19.776Z,61.60
2023-04-01T10:33:23.761Z,61.80
2023-04-01T10:36:55.101Z,61.50
2023-04-01T10:40:02.413Z,61.50
2023-04-01T10:43:29.351Z,61.50
2023-04-01T10:46:42.185Z,61.60
2023-04-01T10:49:30.140Z,61.50
2023-04-01T10:52:10.552Z,61.60
2023-04-01T10:55:46.210Z,61.70
2023-04-01T10:58:57.934Z,61.70
2023-04-01T11:02:10.065Z,61.60
2023-04-01T11:05:50.267Z,61.70
2023-04-01T11:09:06.493Z,61.70
2023-04-01T11:12:10.616Z,61.70
2023-04-01T11:15:28.547Z,61.40
2023-04-01T11:18:38.160Z,61.20
2023-04-01T11:21:54.611Z,61.20
2023-04-01T11:24:47.822Z,61.20
2023-04-01T11:27:55.143Z,61.40
2023-04-01T11:30:55.479Z,61.70
2023-04-01T11:33:40.856Z,61.80
2023-04-01T11:36:30.007Z,61.70
2023-04-01T11:39:22.877Z,61.80
2023-04-01T11:42:19.161Z,61.70
2023-04-01T11:45:59.702Z,61.70
2023-04-01T11:48:46.391Z,61.40
2023-04-01T11:51:47.276Z,61.40
2023-04-01T11:54:52.593Z,61.40
2023-04-01T11:58:09.987Z,61.40
2023-04-01T12:00:53.203Z,61.40
2023-04-01T12:03:51.699Z,61.50
2023-04-01T12:06:49.567Z,61.50
2023-04-01T12:10:09.062Z,61.50
2023-04-01T12:13:01.729Z,61.50
2023-04-01T12:15:56.459Z,61.50
2023-04-01T12:18:51.307Z,61.50
2023-04-01T12:21:37.815Z,61.50
2023-04-01T12:24:31.120Z,61.50
2023-04-01T12:27:29.154Z,61.50
2023-04-01T12:30:35.111Z,61.50
2023-04-01T12:33:52.395Z,61.50
2023-04-01T12:36:36.321Z,61.60
2023-04-01T12:39:34.269Z,61.60
2023-04-01T12:42:32.607Z,61.60
2023-04-01T12:45:35.886Z,61.70
2023-04-01T12:48:27.410Z,61.70
2023-04-01T12:51:28.845Z,61.70
2023-04-01T12:54:31.814Z,61.70
2023-04-01T12:57:31.637Z,61.80
2023-04-01T13:00:36.259Z,61.40
2023-04-01T13:03:54.241Z,61.70
2023-04-01T13:06:58.730Z,61.20
2023-04-01T13:09:35.479Z,61.00
2023-04-01T13:12:39.353Z,61.30
2023-04-01T13:15:53.332Z,61.30
2023-04-01T13:18:34.807Z,61.00
2023-04-01T13:21:40.737Z,61.00
2023-04-01T13:24:50.937Z,61.00
2023-04-01T13:27:28.789Z,61.00
2023-04-01T13:30:31.094Z,61.00
2023-04-01T13:33:22.379Z,61.00
2023-04-01T13:35:58.090Z,60.80
2023-04-01T13:39:04.078Z,60.70
2023-04-01T13:41:45.962Z,60.70
2023-04-01T13:44:20.841Z,60.60
2023-04-01T13:47:26.177Z,60.50
2023-04-01T13:50:19.076Z,60.50
2023-04-01T13:53:10.979Z,60.60
2023-04-01T13:56:04.077Z,60.60
2023-04-01T13:59:07.115Z,60.50
2023-04-01T14:01:43.431Z,60.50
2023-04-01T14:04:51.051Z,60.70
2023-04-01T14:07:48.593Z,60.70
2023-04-01T14:10:45.781Z,60.60
2023-04-01T14:13:43.014Z,60.70
2023-04-01T14:16:52.096Z,60.90
2023-04-01T14:19:51.355Z,60.90
2023-04-01T14:22:33.731Z,61.00
2023-04-01T14:25:32.487Z,61.10
2023-04-01T14:28:10.898Z,61.10
2023-04-01T14:31:13.996Z,61.10
2023-04-01T14:34:28.297Z,61.00
2023-04-01T14:37:28.410Z,61.10
2023-04-01T14:40:24.071Z,60.90
2023-04-01T14:42:56.930Z,60.90
2023-04-01T14:45:42.880Z,60.90
2023-04-01T14:48:40.014Z,60.90
2023-04-01T14:51:35.120Z,60.60
2023-04-01T14:54:31.498Z,60.60
2023-04-01T14:57:22.542Z,60.70
2023-04-01T15:00:15.998Z,60.60
2023-04-01T15:03:04.582Z,60.60
2023-04-01T15:05:48.640Z,60.50
2023-04-01T15:08:44.625Z,60.40
2023-04-01T15:11:35.524Z,60.20
2023-04-01T15:14:19.751Z,60.20
2023-04-01T15:17:40.714Z,60.10
2023-04-01T15:20:27.333Z,60.20
2023-04-01T15:23:20.465Z,60.00
2023-04-01T15:26:18.315Z,60.00
2023-04-01T15:29:09.587Z,60.00
2023-04-01T15:32:04.134Z,60.00
2023-04-01T15:35:16.128Z,60.00
2023-04-01T15:38:07.838Z,60.00
2023-04-01T15:41:24.215Z,60.10
2023-04-01T15:43:54.795Z,60.10
2023-04-01T15:46:44.630Z,60.10
2023-04-01T15:49:17.649Z,60.10
2023-04-01T15:52:26.078Z,60.10
2023-04-01T15:55:32.828Z,60.20
2023-04-01T15:58:31.941Z,60.10
2023-04-01T16:01:32.986Z,60.10
2023-04-01T16:04:39.264Z,60.10
2023-04-01T16:07:28.979Z,60.00
2023-04-01T16:10:48.682Z,60.00
2023-04-01T16:13:39.096Z,59.90
2023-04-01T16:16:59.585Z,60.00
2023-04-01T16:19:51.250Z,59.10
2023-04-01T16:22:39.623Z,59.90
2023-04-01T16:25:35.131Z,59.70
2023-04-01T16:28:33.522Z,59.80
2023-04-01T16:31:27.396Z,59.70
2023-04-01T16:34:30.086Z,60.00
2023-04-01T16:37:17.266Z,59.90
2023-04-01T16:40:11.392Z,60.00
2023-04-01T16:43:48.849Z,59.90
2023-04-01T16:46:42.950Z,60.00
2023-04-01T16:49:12.714Z,60.00
2023-04-01T16:51:58.288Z,60.10
2023-04-01T16:55:00.974Z,60.20
2023-04-01T16:57:48.129Z,60.10
2023-04-01T17:00:32.770Z,60.00
2023-04-01T17:03:27.801Z,60.00
2023-04-01T17:06:31.992Z,60.00
2023-04-01T17:09:52.797Z,60.30
2023-04-01T17:12:43.936Z,60.10
2023-04-01T17:15:26.486Z,60.90
2023-04-01T17:18:11.705Z,60.00
2023-04-01T17:21:00.016Z,60.00
2023-04-01T17:24:05.623Z,60.00
2023-04-01T17:26:47.646Z,60.10
2023-04-01T17:29:20.862Z,60.30
2023-04-01T17:32:05.210Z,60.20
2023-04-01T17:35:01.359Z,60.30
2023-04-01T17:37:59.072Z,60.40
2023-04-01T17:41:06.237Z,60.40
2023-04-01T17:44:34.310Z,60.50
2023-04-01T17:47:21.217Z,60.60
2023-04-01T17:50:18.742Z,60.50
2023-04-01T17:52:54.841Z,60.60
2023-04-01T17:56:01.646Z,60.60
2023-04-01T17:59:08.401Z,60.60
2023-04-01T18:01:48.901Z,60.60
2023-04-01T18:04:50.192Z,60.70
2023-04-01T18:07:32.798Z,60.70
2023-04-01T18:10:25.210Z,60.70
2023-04-01T18:13:41.226Z,60.70
2023-04-01T18:16:49.815Z,60.70
2023-04-01T18:19:40.448Z,60.80
2023-04-01T18:22:21.599Z,60.80
2023-04-01T18:25:03.944Z,60.90
2023-04-01T18:27:49.470Z,60.90
2023-04-01T18:30:31.756Z,60.90
2023-04-01T18:33:20.286Z,61.00
2023-04-01T18:36:17.026Z,60.90
2023-04-01T18:39:08.777Z,60.90
2023-04-01T18:42:19.220Z,61.00
2023-04-01T18:45:16.474Z,61.00
2023-04-01T18:48:18.477Z,61.10
2023-04-01T18:50:52.745Z,61.10
2023-04-01T18:53:44.584Z,61.10
2023-04-01T18:56:26.598Z,61.30
2023-04-01T18:59:07.644Z,61.40
2023-04-01T19:02:03.416Z,61.50
2023-04-01T19:04:58.976Z,61.40
2023-04-01T19:07:38.699Z,61.40
2023-04-01T19:10:18.506Z,61.50
2023-04-01T19:13:09.045Z,61.40
2023-04-01T19:15:48.694Z,61.40
2023-04-01T19:19:06.317Z,61.50
2023-04-01T19:22:00.699Z,61.40
2023-04-01T19:25:01.694Z,61.40
2023-04-01T19:27:53.580Z,61.40
2023-04-01T19:31:10.425Z,61.40
2023-04-01T19:34:00.771Z,61.40
2023-04-01T19:36:56.618Z,61.40
2023-04-01T19:40:38.193Z,61.40
2023-04-01T19:43:37.604Z,61.30
2023-04-01T19:46:35.003Z,61.40
2023-04-01T19:49:11.700Z,61.30
2023-04-01T19:52:04.490Z,61.40
2023-04-01T19:54:54.464Z,61.40
2023-04-01T19:57:35.045Z,61.40
2023-04-01T20:00:31.333Z,61.40
2023-04-01T20:03:19.436Z,61.40
2023-04-01T20:05:52.189Z,61.40
2023-04-01T20:08:37.806Z,61.40
2023-04-01T20:11:31.980Z,61.30
2023-04-01T20:14:29.120Z,61.40
2023-04-01T20:17:14.660Z,61.30
2023-04-01T20:19:54.903Z,61.30
2023-04-01T20:22:47.321Z,61.30
2023-04-01T20:25:48.200Z,61.30
2023-04-01T20:28:21.730Z,61.30
2023-04-01T20:31:48.614Z,62.20
2023-04-01T20:34:37.598Z,61.30
2023-04-01T20:37:56.133Z,61.30
2023-04-01T20:40:35.422Z,61.30
2023-04-01T20:43:42.582Z,61.30
2023-04-01T20:46:38.728Z,61.30
2023-04-01T20:49:36.435Z,61.50
2023-04-01T20:52:15.638Z,61.40
2023-04-01T20:55:23.897Z,61.50
2023-04-01T20:58:02.911Z,61.60
2023-04-01T21:00:59.659Z,61.70
2023-04-01T21:03:35.589Z,61.70
2023-04-01T21:06:29.370Z,61.70
2023-04-01T21:09:21.360Z,62.00
2023-04-01T21:12:28.544Z,62.00
2023-04-01T21:15:16.404Z,62.10
2023-04-01T21:18:20.036Z,62.20
2023-04-01T21:21:14.592Z,62.20
2023-04-01T21:24:29.196Z,62.30
2023-04-01T21:27:17.476Z,62.30
2023-04-01T21:29:57.020Z,62.20
2023-04-01T21:33:12.044Z,62.30
2023-04-01T21:35:45.935Z,62.30
2023-04-01T21:38:41.731Z,62.30
2023-04-01T21:42:16.129Z,62.40
2023-04-01T21:45:16.333Z,62.50
2023-04-01T21:47:46.243Z,62.40
2023-04-01T21:50:40.620Z,62.50
2023-04-01T21:53:32.361Z,62.50
2023-04-01T21:56:56.070Z,62.50
2023-04-01T22:00:17.221Z,62.50
2023-04-01T22:03:27.525Z,62.60
2023-04-01T22:06:22.839Z,62.60
2023-04-01T22:09:26.766Z,62.60
2023-04-01T22:12:07.876Z,62.70
2023-04-01T22:14:57.699Z,62.70
2023-04-01T22:17:50.417Z,62.90
2023-04-01T22:20:32.289Z,62.70
2023-04-01T22:23:45.257Z,62.80
2023-04-01T22:26:55.365Z,62.80
2023-04-01T22:30:19.792Z,62.70
2023-04-01T22:32:52.021Z,62.70
2023-04-01T22:36:13.648Z,62.80
2023-04-01T22:38:55.967Z,62.80
2023-04-01T22:42:08.338Z,63.00
2023-04-01T22:44:57.377Z,63.00
2023-04-01T22:47:30.521Z,62.90
2023-04-01T22:50:12.091Z,62.90
2023-04-01T22:52:46.785Z,63.00
2023-04-01T22:55:31.372Z,64.10
2023-04-01T22:58:04.448Z,63.10
2023-04-01T23:00:45.551Z,63.10
2023-04-01T23:03:38.020Z,63.10
2023-04-01T23:06:06.172Z,63.10
2023-04-01T23:08:54.673Z,63.00
2023-04-01T23:11:53.139Z,63.10
2023-04-01T23:14:24.955Z,63.20
2023-04-01T23:17:23.397Z,63.10
2023-04-01T23:20:22.741Z,63.10
2023-04-01T23:23:17.697Z,63.20
2023-04-01T23:25:54.255Z,63.20
2023-04-01T23:28:32.389Z,63.10
2023-04-01T23:30:59.625Z,63.30
2023-04-01T23:33:32.498Z,63.10
2023-04-01T23:36:06.891Z,63.30
2023-04-01T23:38:40.490Z,63.20
2023-04-01T23:41:09.350Z,63.30
2023-04-01T23:43:40.962Z,63.30
2023-04-01T23:46:08.785Z,63.40
2023-04-01T23:48:43.358Z,63.30
2023-04-01T23:51:39.767Z,63.40
2023-04-01T23:54:25.329Z,63.40
2023-04-01T23:56:56.510Z,63.50
2023-04-01T23:59:34.502Z,63.50
